Time;durP1;ratioP1;P1;durP2;ratioP2;P2;SDS_P1;SDS_P2;PMS_P1;PMS_P2;Temp;Humidity;BMP_temperature;BMP_pressure;BME280_temperature;BME280_humidity;BME280_pressure;Samples;Min_cycle;Max_cycle;Signal;HPM_P1;HPM_P2
2022/04/29 00:00:47;;;;;;;9.88;4.18;;;8.90;99.90;;;;;;5026389;28;20807;-72
2022/04/29 00:03:14;;;;;;;11.93;4.30;;;8.90;99.90;;;;;;5007185;28;20041;-71
2022/04/29 00:05:42;;;;;;;15.15;4.70;;;8.80;99.90;;;;;;5006174;28;20034;-71
2022/04/29 00:08:09;;;;;;;12.82;4.85;;;8.90;99.90;;;;;;5007460;28;20041;-71
2022/04/29 00:10:35;;;;;;;12.23;4.38;;;8.80;99.90;;;;;;5008211;28;20037;-71
2022/04/29 00:13:03;;;;;;;12.50;4.63;;;8.80;99.90;;;;;;5017296;28;20030;-72
2022/04/29 00:15:29;;;;;;;11.00;4.53;;;8.80;99.90;;;;;;5010017;28;20070;-71
2022/04/29 00:17:56;;;;;;;7.45;4.13;;;8.70;99.90;;;;;;5009390;28;20576;-71
2022/04/29 00:20:21;;;;;;;13.50;5.32;;;8.70;99.90;;;;;;5013094;28;20576;-71
2022/04/29 00:22:47;;;;;;;7.65;4.40;;;8.70;99.90;;;;;;5008913;28;20030;-71
2022/04/29 00:25:13;;;;;;;11.40;4.80;;;8.60;99.90;;;;;;5012769;28;20033;-72
2022/04/29 00:27:40;;;;;;;8.93;4.70;;;8.60;99.90;;;;;;5028036;28;20056;-72
2022/04/29 00:30:10;;;;;;;9.77;4.60;;;8.60;99.90;;;;;;5013138;28;20595;-71
2022/04/29 00:32:38;;;;;;;16.17;4.70;;;8.60;99.90;;;;;;5028298;28;20021;-71
2022/04/29 00:35:05;;;;;;;10.40;4.97;;;8.60;99.90;;;;;;5013505;28;20529;-72
2022/04/29 00:37:31;;;;;;;14.00;5.43;;;8.60;99.90;;;;;;5010460;28;20747;-72
2022/04/29 00:39:57;;;;;;;11.98;5.43;;;8.60;99.90;;;;;;5026198;28;20029;-72
2022/04/29 00:42:23;;;;;;;10.43;4.97;;;8.60;99.90;;;;;;5013178;28;20091;-72
2022/04/29 00:44:49;;;;;;;12.23;5.40;;;8.60;99.90;;;;;;5013399;28;20029;-72
2022/04/29 00:47:20;;;;;;;14.02;5.28;;;8.60;99.90;;;;;;5030129;28;20029;-71
2022/04/29 00:49:51;;;;;;;9.15;4.75;;;8.50;99.90;;;;;;5028209;28;20196;-68
2022/04/29 00:52:19;;;;;;;11.27;4.93;;;8.50;99.90;;;;;;5013076;28;20032;-68
2022/04/29 00:54:52;;;;;;;15.07;5.38;;;8.50;99.90;;;;;;5027018;28;20033;-68
2022/04/29 00:57:27;;;;;;;17.00;5.68;;;8.50;99.90;;;;;;5013477;28;20048;-68
2022/04/29 01:00:01;;;;;;;10.25;5.25;;;8.50;99.90;;;;;;5030511;28;20036;-68
2022/04/29 01:02:28;;;;;;;9.00;5.28;;;8.40;99.90;;;;;;5025060;28;20040;-68
2022/04/29 01:05:06;;;;;;;9.60;5.10;;;8.40;99.90;;;;;;5028355;28;20130;-68
2022/04/29 01:07:36;;;;;;;10.10;5.22;;;8.30;99.90;;;;;;5021927;28;20108;-69
2022/04/29 01:10:03;;;;;;;9.52;5.10;;;8.30;99.90;;;;;;5012489;28;20111;-68
2022/04/29 01:12:32;;;;;;;13.25;5.68;;;8.30;99.90;;;;;;5007756;28;20063;-69
2022/04/29 01:15:06;;;;;;;11.52;5.20;;;8.30;99.90;;;;;;5010296;28;20493;-68
2022/04/29 01:17:34;;;;;;;10.00;4.88;;;8.30;99.90;;;;;;5023658;28;20140;-68
2022/04/29 01:20:05;;;;;;;13.20;5.60;;;8.30;99.90;;;;;;5027875;28;20601;-68
2022/04/29 01:22:31;;;;;;;16.63;6.30;;;8.30;99.90;;;;;;5005560;28;20096;-69
2022/04/29 01:24:57;;;;;;;9.68;5.40;;;8.30;99.90;;;;;;5009330;28;20050;-68
2022/04/29 01:27:23;;;;;;;11.90;5.28;;;8.30;99.90;;;;;;5027486;28;20033;-68
2022/04/29 01:30:11;;;;;;;10.02;5.78;;;8.30;99.90;;;;;;5025821;28;20035;-68
2022/04/29 01:32:39;;;;;;;9.63;5.25;;;8.30;99.90;;;;;;5009117;28;20070;-68
2022/04/29 01:35:06;;;;;;;14.60;5.90;;;8.30;99.90;;;;;;5029402;28;20053;-68
2022/04/29 01:37:33;;;;;;;11.95;5.38;;;8.30;99.90;;;;;;5024705;28;20075;-68
2022/04/29 01:39:59;;;;;;;13.85;5.47;;;8.20;99.90;;;;;;5026090;28;20029;-68
2022/04/29 01:42:25;;;;;;;10.07;5.28;;;8.20;99.90;;;;;;5008966;28;20030;-68
2022/04/29 01:44:51;;;;;;;15.07;5.78;;;8.10;99.90;;;;;;5027827;28;20072;-68
2022/04/29 01:47:17;;;;;;;9.50;5.10;;;8.10;99.90;;;;;;5006061;28;20573;-68
2022/04/29 01:49:46;;;;;;;11.38;5.80;;;8.10;99.90;;;;;;5024241;28;20029;-68
2022/04/29 01:52:11;;;;;;;9.35;5.38;;;8.10;99.90;;;;;;5030620;28;20025;-72
2022/04/29 01:54:37;;;;;;;13.90;5.72;;;8.10;99.90;;;;;;5007331;28;20041;-71
2022/04/29 01:57:05;;;;;;;11.77;5.57;;;8.10;99.90;;;;;;5010538;28;20552;-70
2022/04/29 01:59:31;;;;;;;12.75;5.50;;;8.10;99.90;;;;;;5025906;28;20030;-67
2022/04/29 02:01:58;;;;;;;11.48;5.32;;;8.10;99.90;;;;;;5010240;28;20035;-71
2022/04/29 02:04:25;;;;;;;9.93;5.45;;;8.10;99.90;;;;;;5026041;28;20156;-73
2022/04/29 02:06:50;;;;;;;10.60;5.68;;;8.00;99.90;;;;;;5010934;28;20108;-74
2022/04/29 02:09:16;;;;;;;13.10;6.10;;;8.10;99.90;;;;;;5030345;28;20659;-69
2022/04/29 02:12:04;;;;;;;11.63;6.28;;;8.10;99.90;;;;;;5022009;28;20729;-69
2022/04/29 02:14:41;;;;;;;10.20;5.72;;;8.00;99.90;;;;;;5023060;28;20102;-70
2022/04/29 02:17:10;;;;;;;11.50;5.93;;;8.00;99.90;;;;;;5022172;28;20041;-72
2022/04/29 02:19:37;;;;;;;12.82;6.05;;;8.00;99.90;;;;;;5026223;28;20271;-69
2022/04/29 02:22:04;;;;;;;13.50;6.40;;;8.00;99.90;;;;;;5023879;28;20041;-70
2022/04/29 02:24:31;;;;;;;14.30;6.53;;;8.00;99.90;;;;;;5027517;28;20481;-69
2022/04/29 02:26:59;;;;;;;13.77;6.30;;;8.00;99.90;;;;;;5008507;28;20026;-72
2022/04/29 02:29:27;;;;;;;12.23;6.13;;;8.00;99.90;;;;;;5028393;28;20037;-70
2022/04/29 02:31:52;;;;;;;11.55;5.65;;;8.10;99.90;;;;;;5021734;28;20029;-69
2022/04/29 02:34:19;;;;;;;15.02;6.72;;;8.00;99.90;;;;;;5009702;28;20038;-72
2022/04/29 02:36:45;;;;;;;12.50;5.95;;;8.00;99.90;;;;;;5011024;28;20403;-73
2022/04/29 02:39:11;;;;;;;9.20;5.90;;;7.90;99.90;;;;;;5005488;28;20037;-69
2022/04/29 02:41:37;;;;;;;10.85;6.00;;;7.80;99.90;;;;;;5021549;28;20445;-73
2022/04/29 02:44:03;;;;;;;12.27;5.53;;;7.80;99.90;;;;;;5024719;28;20056;-72
2022/04/29 02:46:29;;;;;;;14.52;6.00;;;7.80;99.90;;;;;;5020527;28;20107;-72
2022/04/29 02:48:54;;;;;;;14.65;6.65;;;7.80;99.90;;;;;;5025302;28;20591;-72
2022/04/29 02:51:20;;;;;;;15.55;6.75;;;7.80;99.90;;;;;;5010156;28;20093;-74
2022/04/29 02:53:46;;;;;;;13.13;6.50;;;7.80;99.90;;;;;;5010654;28;20180;-71
2022/04/29 02:56:12;;;;;;;11.38;6.22;;;7.80;99.90;;;;;;5007672;28;20033;-68
2022/04/29 02:58:37;;;;;;;12.35;6.20;;;7.80;99.90;;;;;;5028923;28;20041;-68
2022/04/29 03:01:04;;;;;;;11.45;5.70;;;7.80;99.90;;;;;;5022176;28;20477;-71
2022/04/29 03:03:30;;;;;;;10.32;6.05;;;7.80;99.90;;;;;;5025638;28;20128;-69
2022/04/29 03:05:56;;;;;;;11.18;5.88;;;7.80;99.90;;;;;;5022631;28;20037;-71
2022/04/29 03:08:22;;;;;;;11.60;6.13;;;7.80;99.90;;;;;;5026556;28;20029;-74
2022/04/29 03:10:48;;;;;;;11.95;6.00;;;7.70;99.90;;;;;;5028590;28;20474;-71
2022/04/29 03:13:15;;;;;;;13.45;5.88;;;7.70;99.90;;;;;;5026084;28;20029;-68
2022/04/29 03:15:40;;;;;;;11.38;5.85;;;7.60;99.90;;;;;;5020635;28;20036;-67
2022/04/29 03:18:18;;;;;;;12.15;6.22;;;7.70;99.90;;;;;;5028773;28;20033;-70
2022/04/29 03:20:45;;;;;;;13.35;6.00;;;7.70;99.90;;;;;;5008158;28;20079;-75
2022/04/29 03:23:11;;;;;;;11.85;5.47;;;7.60;99.90;;;;;;5013569;28;20056;-72
2022/04/29 03:25:37;;;;;;;15.50;6.80;;;7.60;99.90;;;;;;4989751;28;20096;-68
2022/04/29 03:28:07;;;;;;;19.85;6.55;;;7.60;99.90;;;;;;5009985;28;20426;-71
2022/04/29 03:30:34;;;;;;;12.68;6.50;;;7.60;99.90;;;;;;5025625;28;20039;-71
2022/04/29 03:33:02;;;;;;;12.27;6.00;;;7.50;99.90;;;;;;5026325;28;20021;-70
2022/04/29 03:35:27;;;;;;;14.52;6.65;;;7.50;99.90;;;;;;5026246;28;20473;-71
2022/04/29 03:37:53;;;;;;;12.20;6.10;;;7.50;99.90;;;;;;5005753;28;20038;-68
2022/04/29 03:40:21;;;;;;;13.27;6.38;;;7.40;99.90;;;;;;5007378;28;20083;-67
2022/04/29 03:42:51;;;;;;;12.63;6.65;;;7.50;99.90;;;;;;5023715;28;20043;-68
2022/04/29 03:45:17;;;;;;;15.45;6.75;;;7.50;99.90;;;;;;5007722;28;20099;-71
2022/04/29 03:47:43;;;;;;;10.73;6.15;;;7.50;99.90;;;;;;5010186;28;20136;-71
2022/04/29 03:50:10;;;;;;;12.43;6.20;;;7.50;99.90;;;;;;5029072;28;20063;-68
2022/04/29 03:52:51;;;;;;;17.23;7.18;;;7.50;99.90;;;;;;5028726;28;20033;-71
2022/04/29 03:55:22;;;;;;;10.80;6.67;;;7.50;99.90;;;;;;5027586;28;20038;-71
2022/04/29 03:57:49;;;;;;;13.73;6.43;;;7.50;99.90;;;;;;5030678;28;20041;-71
2022/04/29 04:00:15;;;;;;;11.52;6.13;;;7.50;99.90;;;;;;5011692;28;20036;-68
2022/04/29 04:02:41;;;;;;;11.30;5.97;;;7.50;99.90;;;;;;5012525;28;20087;-71
2022/04/29 04:05:08;;;;;;;15.57;6.68;;;7.50;99.90;;;;;;5008682;28;20555;-71
2022/04/29 04:07:35;;;;;;;9.18;5.93;;;7.50;99.90;;;;;;5012100;28;20038;-70
2022/04/29 04:10:00;;;;;;;9.38;5.90;;;7.40;99.90;;;;;;5027897;28;20090;-71
2022/04/29 04:12:36;;;;;;;12.43;6.32;;;7.40;99.90;;;;;;5025881;28;20041;-72
2022/04/29 04:15:03;;;;;;;12.90;5.85;;;7.50;99.90;;;;;;5022645;28;20047;-68
2022/04/29 04:17:28;;;;;;;12.65;7.05;;;7.50;99.90;;;;;;5022547;28;20029;-72
2022/04/29 04:19:54;;;;;;;13.93;6.05;;;7.50;99.90;;;;;;5012275;28;20504;-70
2022/04/29 04:22:20;;;;;;;11.65;5.90;;;7.50;99.90;;;;;;5010373;28;20107;-68
2022/04/29 04:24:45;;;;;;;10.02;5.90;;;7.50;99.90;;;;;;5027779;28;20136;-73
2022/04/29 04:27:11;;;;;;;9.82;5.50;;;7.50;99.90;;;;;;5013261;28;20044;-71
2022/04/29 04:29:36;;;;;;;12.07;6.32;;;7.40;99.90;;;;;;5009532;28;20516;-68
2022/04/29 04:32:02;;;;;;;13.48;6.57;;;7.50;99.90;;;;;;5024539;28;20029;-68
2022/04/29 04:37:14;;;;;;;11.68;6.13;;;7.50;99.90;;;;;;5027669;28;20108;-68
2022/04/29 04:39:40;;;;;;;13.65;6.82;;;7.40;99.90;;;;;;5005797;28;20178;-72
2022/04/29 04:42:06;;;;;;;14.70;6.05;;;7.40;99.90;;;;;;5008134;28;20037;-73
2022/04/29 04:44:33;;;;;;;11.45;6.07;;;7.40;99.90;;;;;;5027369;28;20506;-71
2022/04/29 04:46:59;;;;;;;12.55;6.43;;;7.40;99.90;;;;;;5023012;28;20519;-71
2022/04/29 04:49:26;;;;;;;10.98;6.03;;;7.40;99.90;;;;;;5019515;28;20082;-76
2022/04/29 04:51:53;;;;;;;15.65;6.82;;;7.40;99.90;;;;;;5014762;28;20107;-72
2022/04/29 04:54:18;;;;;;;11.40;6.15;;;7.40;99.90;;;;;;5011106;28;20501;-68
2022/04/29 04:56:44;;;;;;;12.13;6.15;;;7.50;99.90;;;;;;5023014;28;20172;-69
2022/04/29 04:59:10;;;;;;;15.98;5.88;;;7.40;99.90;;;;;;5025568;28;20032;-68
2022/04/29 05:01:35;;;;;;;11.52;7.05;;;7.40;99.90;;;;;;5022628;28;20033;-73
2022/04/29 05:04:01;;;;;;;11.68;6.38;;;7.50;99.90;;;;;;5009569;28;20037;-76
2022/04/29 05:06:27;;;;;;;13.88;5.78;;;7.50;99.90;;;;;;5025547;28;20529;-69
2022/04/29 05:08:52;;;;;;;10.05;6.10;;;7.50;99.90;;;;;;5009079;28;20037;-73
2022/04/29 05:11:18;;;;;;;11.77;6.47;;;7.50;99.90;;;;;;5009215;28;20532;-74
2022/04/29 05:13:43;;;;;;;9.82;6.15;;;7.50;99.90;;;;;;5008333;28;20061;-69
2022/04/29 05:16:11;;;;;;;11.63;5.93;;;7.60;99.90;;;;;;5025404;28;20505;-75
2022/04/29 05:18:37;;;;;;;10.70;5.93;;;7.60;99.90;;;;;;5004846;28;20110;-76
2022/04/29 05:21:03;;;;;;;12.00;6.35;;;7.70;99.90;;;;;;5027114;28;20465;-73
2022/04/29 05:23:30;;;;;;;14.20;6.50;;;7.70;99.90;;;;;;5027031;28;20029;-76
2022/04/29 05:25:55;;;;;;;12.05;5.90;;;7.70;99.90;;;;;;5022339;28;20087;-73
2022/04/29 05:28:21;;;;;;;10.68;5.90;;;7.80;99.90;;;;;;5007713;28;20050;-73
2022/04/29 05:30:48;;;;;;;10.82;5.82;;;7.80;99.90;;;;;;5004974;28;20328;-74
2022/04/29 05:33:14;;;;;;;12.65;6.28;;;7.90;99.90;;;;;;5005737;28;20125;-74
2022/04/29 05:35:40;;;;;;;13.85;6.68;;;7.90;99.90;;;;;;5008697;28;20108;-74
2022/04/29 05:38:06;;;;;;;10.40;5.88;;;7.90;99.90;;;;;;5026474;28;20837;-75
2022/04/29 05:43:16;;;;;;;10.82;5.90;;;8.10;99.90;;;;;;5025726;28;20129;-78
2022/04/29 05:45:43;;;;;;;11.75;5.88;;;8.20;99.90;;;;;;5006407;28;20025;-76
2022/04/29 05:48:09;;;;;;;7.15;5.53;;;8.20;99.90;;;;;;5006067;28;20041;-77
2022/04/29 05:50:34;;;;;;;14.52;6.82;;;8.20;99.90;;;;;;5028806;28;20080;-70
2022/04/29 05:53:00;;;;;;;12.57;5.95;;;8.20;99.90;;;;;;5025982;28;20021;-75
2022/04/29 05:55:26;;;;;;;14.25;6.15;;;8.10;99.90;;;;;;5031771;28;20025;-73
2022/04/29 05:57:51;;;;;;;11.70;5.60;;;8.20;99.90;;;;;;5008988;28;20108;-76
2022/04/29 06:00:19;;;;;;;11.95;6.30;;;8.20;99.90;;;;;;5006751;28;20072;-76
2022/04/29 06:02:45;;;;;;;10.57;5.93;;;8.10;99.90;;;;;;4987881;28;20034;-71
2022/04/29 06:05:11;;;;;;;11.85;5.85;;;8.00;99.90;;;;;;5009863;28;20511;-69
2022/04/29 06:07:37;;;;;;;11.68;6.07;;;8.00;99.90;;;;;;4983450;28;20029;-70
2022/04/29 06:10:05;;;;;;;14.45;5.93;;;8.00;99.90;;;;;;4991765;28;20025;-75
2022/04/29 06:12:37;;;;;;;10.15;5.55;;;8.00;99.90;;;;;;5006934;28;20539;-70
2022/04/29 06:15:04;;;;;;;11.00;6.05;;;8.10;99.90;;;;;;5001324;28;20731;-70
2022/04/29 06:17:29;;;;;;;13.35;5.80;;;8.20;99.90;;;;;;5010273;28;20112;-77
2022/04/29 06:19:55;;;;;;;10.13;5.55;;;8.20;99.90;;;;;;4994902;28;20589;-69
2022/04/29 06:22:20;;;;;;;10.90;5.10;;;8.30;99.90;;;;;;5021242;28;20035;-69
2022/04/29 06:24:46;;;;;;;10.70;5.00;;;8.40;99.90;;;;;;5004416;28;20083;-69
2022/04/29 06:27:12;;;;;;;14.32;5.40;;;8.50;99.90;;;;;;5003482;28;20502;-76
2022/04/29 06:29:37;;;;;;;8.30;4.90;;;8.60;99.90;;;;;;5004230;28;20028;-72
2022/04/29 06:32:03;;;;;;;12.00;4.90;;;8.70;99.90;;;;;;5016837;28;20091;-72
2022/04/29 06:34:29;;;;;;;11.80;5.03;;;8.90;99.90;;;;;;5032145;28;20381;-73
2022/04/29 06:36:55;;;;;;;10.07;4.40;;;9.00;99.90;;;;;;5014483;28;20022;-72
2022/04/29 06:39:20;;;;;;;7.70;4.82;;;9.10;99.90;;;;;;5017608;28;20041;-73
2022/04/29 06:41:46;;;;;;;10.80;4.60;;;9.10;99.90;;;;;;4998839;28;20047;-74
2022/04/29 06:44:11;;;;;;;11.48;4.32;;;9.20;99.90;;;;;;4996246;28;20462;-69
2022/04/29 06:46:37;;;;;;;7.22;4.32;;;9.20;99.90;;;;;;5034678;28;20063;-70
2022/04/29 06:49:03;;;;;;;11.07;4.30;;;9.30;99.90;;;;;;5020927;28;20469;-72
2022/04/29 06:51:29;;;;;;;10.30;4.55;;;9.30;99.90;;;;;;5016120;28;20110;-68
2022/04/29 06:53:55;;;;;;;7.10;4.32;;;9.30;99.90;;;;;;5000420;28;20025;-69
2022/04/29 06:56:20;;;;;;;10.88;4.50;;;9.20;99.90;;;;;;5034105;28;20029;-74
2022/04/29 06:58:46;;;;;;;10.55;4.60;;;9.30;99.90;;;;;;5014606;28;20147;-73
2022/04/29 07:01:12;;;;;;;9.13;4.20;;;9.30;99.90;;;;;;5027385;28;20057;-73
2022/04/29 07:03:39;;;;;;;9.48;4.50;;;9.20;99.90;;;;;;5019330;28;20660;-70
2022/04/29 07:06:06;;;;;;;9.02;4.57;;;9.30;99.90;;;;;;5032328;28;20428;-73
2022/04/29 07:08:32;;;;;;;9.88;4.28;;;9.30;99.90;;;;;;5030823;28;20072;-73
2022/04/29 07:10:58;;;;;;;13.00;4.53;;;9.40;99.90;;;;;;5033593;28;20108;-69
2022/04/29 07:13:26;;;;;;;8.40;3.42;;;9.40;99.90;;;;;;5010066;28;20124;-74
2022/04/29 07:15:52;;;;;;;8.43;3.95;;;9.40;99.90;;;;;;5006624;28;20021;-70
2022/04/29 07:18:17;;;;;;;9.15;4.40;;;9.60;99.90;;;;;;4995975;28;20107;-75
2022/04/29 07:20:44;;;;;;;12.85;4.70;;;9.70;99.90;;;;;;4990858;28;20033;-80
2022/04/29 07:23:09;;;;;;;11.55;4.88;;;9.70;99.90;;;;;;5000095;28;20653;-70
2022/04/29 07:25:35;;;;;;;14.23;5.28;;;9.80;99.90;;;;;;5015249;28;20025;-70
2022/04/29 07:28:01;;;;;;;11.07;5.05;;;9.90;99.90;;;;;;4997000;28;20116;-70
2022/04/29 07:30:27;;;;;;;10.90;4.50;;;9.90;99.90;;;;;;5031031;28;20220;-71
2022/04/29 07:32:54;;;;;;;8.18;4.10;;;9.90;99.90;;;;;;5007503;28;20060;-70
2022/04/29 07:43:36;;;;;;;7.72;3.65;;;10.10;99.90;;;;;;5012099;28;20112;-70
2022/04/29 07:46:05;;;;;;;11.98;4.95;;;10.10;99.90;;;;;;5014647;28;20050;-70
2022/04/29 07:48:31;;;;;;;8.20;3.67;;;10.20;99.90;;;;;;5010877;28;20494;-70
2022/04/29 07:50:57;;;;;;;11.25;4.10;;;10.10;99.90;;;;;;5028006;28;20028;-70
2022/04/29 07:53:23;;;;;;;6.55;3.42;;;10.30;99.90;;;;;;5012473;28;20568;-70
2022/04/29 07:55:49;;;;;;;10.63;3.85;;;10.40;99.90;;;;;;5030700;28;20056;-70
2022/04/29 07:58:15;;;;;;;7.63;3.80;;;10.50;99.90;;;;;;5012772;28;21280;-70
2022/04/29 08:00:43;;;;;;;5.70;3.22;;;10.80;99.90;;;;;;5027878;28;20433;-70
2022/04/29 08:03:09;;;;;;;9.82;3.72;;;10.90;99.90;;;;;;5008403;28;20438;-70
2022/04/29 08:05:35;;;;;;;10.32;3.28;;;11.10;99.90;;;;;;5028229;28;20056;-70
2022/04/29 08:08:00;;;;;;;10.40;3.17;;;11.20;99.90;;;;;;5013237;28;20065;-70
2022/04/29 08:10:32;;;;;;;9.98;3.35;;;11.30;99.90;;;;;;5012313;28;20026;-70
2022/04/29 08:13:03;;;;;;;8.77;3.08;;;11.30;99.90;;;;;;4996503;28;20025;-70
2022/04/29 08:15:30;;;;;;;7.10;2.60;;;11.40;99.90;;;;;;5029983;28;20036;-70
2022/04/29 08:17:59;;;;;;;8.40;3.80;;;11.40;99.30;;;;;;5010292;28;20034;-70
2022/04/29 08:20:25;;;;;;;5.68;2.80;;;11.40;99.00;;;;;;5010545;28;20463;-70
2022/04/29 08:22:51;;;;;;;6.88;2.92;;;11.40;99.20;;;;;;5032792;28;20098;-70
2022/04/29 08:25:18;;;;;;;5.95;2.42;;;11.30;99.40;;;;;;5031968;28;20060;-70
2022/04/29 08:27:46;;;;;;;5.65;2.60;;;11.30;99.30;;;;;;5028707;28;20037;-71
2022/04/29 08:30:12;;;;;;;5.68;2.20;;;11.20;98.90;;;;;;5033317;28;20421;-70
2022/04/29 08:32:46;;;;;;;4.78;2.22;;;11.20;99.10;;;;;;5003925;28;20037;-70
2022/04/29 08:35:13;;;;;;;8.02;2.47;;;11.30;99.00;;;;;;5025432;28;20029;-70
2022/04/29 08:37:40;;;;;;;11.15;3.20;;;11.50;98.20;;;;;;5030399;28;20484;-75
2022/04/29 08:40:08;;;;;;;11.13;3.20;;;11.50;97.50;;;;;;5021877;28;20067;-74
2022/04/29 08:42:37;;;;;;;6.20;2.55;;;11.50;97.50;;;;;;5028624;28;20063;-70
2022/04/29 08:45:22;;;;;;;7.10;2.60;;;11.50;97.20;;;;;;5007818;28;20064;-76
2022/04/29 08:47:47;;;;;;;4.03;2.35;;;11.30;97.30;;;;;;5011051;28;20068;-70
2022/04/29 08:50:18;;;;;;;7.93;2.58;;;11.20;97.60;;;;;;5014820;28;20044;-75
2022/04/29 08:52:45;;;;;;;6.15;2.72;;;11.10;97.60;;;;;;5007950;28;20370;-75
2022/04/29 09:00:42;;;;;;;5.43;2.45;;;11.10;97.70;;;;;;5030462;28;20103;-74
2022/04/29 09:03:15;;;;;;;9.63;2.88;;;11.20;97.70;;;;;;5029890;28;20103;-70
2022/04/29 09:05:46;;;;;;;4.90;2.30;;;11.20;97.50;;;;;;5030329;28;20029;-70
2022/04/29 09:08:16;;;;;;;;;;;11.30;97.20;;;;;;5008527;28;20030;-77
2022/04/29 09:11:00;;;;;;;5.60;2.20;;;11.30;97.00;;;;;;5027589;28;19928;-75
2022/04/29 09:13:27;;;;;;;6.25;2.28;;;11.30;96.50;;;;;;5011589;28;20033;-71
2022/04/29 09:16:05;;;;;;;6.03;2.35;;;11.30;96.60;;;;;;5004966;28;20737;-73
2022/04/29 09:18:37;;;;;;;5.53;2.70;;;11.40;96.90;;;;;;5012301;28;20611;-70
2022/04/29 09:21:18;;;;;;;6.40;2.60;;;11.40;96.90;;;;;;5031218;28;20079;-73
2022/04/29 09:23:45;;;;;;;7.85;3.28;;;11.50;96.80;;;;;;5013256;28;20041;-73
2022/04/29 09:26:22;;;;;;;6.88;2.47;;;11.60;97.10;;;;;;5012561;28;20200;-74
2022/04/29 09:28:49;;;;;;;7.53;2.78;;;11.70;97.20;;;;;;4990665;28;20030;-74
2022/04/29 09:31:15;;;;;;;6.40;3.30;;;11.90;97.10;;;;;;5027573;28;20037;-75
2022/04/29 09:33:55;;;;;;;6.53;2.90;;;12.00;96.70;;;;;;5031215;28;20480;-70
2022/04/29 09:36:26;;;;;;;6.05;2.42;;;12.10;96.60;;;;;;5021966;28;20083;-69
2022/04/29 09:41:39;;;;;;;7.32;2.55;;;12.40;95.90;;;;;;5004959;28;20044;-70
2022/04/29 09:44:05;;;;;;;5.85;2.78;;;12.50;94.60;;;;;;5008783;28;20396;-70
2022/04/29 09:46:31;;;;;;;6.75;2.90;;;12.60;93.90;;;;;;5024830;28;20499;-70
2022/04/29 09:48:58;;;;;;;10.85;2.60;;;12.60;93.80;;;;;;4995683;28;20041;-79
2022/04/29 09:51:46;;;;;;;9.13;2.72;;;12.70;93.20;;;;;;4998464;28;20128;-69
2022/04/29 09:54:38;;;;;;;6.40;3.20;;;12.80;93.20;;;;;;5022877;28;20137;-74
2022/04/29 09:57:13;;;;;;;6.57;2.78;;;13.00;92.70;;;;;;5006217;28;20037;-74
2022/04/29 09:59:41;;;;;;;5.93;2.67;;;12.90;92.10;;;;;;5016653;28;20053;-77
2022/04/29 10:02:09;;;;;;;6.47;2.28;;;12.80;92.30;;;;;;5030357;28;20029;-74
2022/04/29 10:04:39;;;;;;;5.20;2.42;;;12.80;91.30;;;;;;5011979;28;20045;-73
2022/04/29 10:07:08;;;;;;;6.25;2.33;;;12.80;90.70;;;;;;5009740;28;20029;-74
2022/04/29 10:09:36;;;;;;;6.18;2.47;;;12.80;90.80;;;;;;5009716;28;20038;-74
2022/04/29 10:12:05;;;;;;;3.45;1.65;;;12.80;88.80;;;;;;5025632;28;20025;-74
2022/04/29 10:14:35;;;;;;;4.78;2.20;;;12.90;89.70;;;;;;5025581;28;20251;-75
2022/04/29 10:22:42;;;;;;;3.65;2.15;;;13.20;88.30;;;;;;5025892;28;20030;-74
2022/04/29 10:25:10;;;;;;;4.72;2.33;;;13.40;88.00;;;;;;5007303;28;20079;-77
2022/04/29 10:27:38;;;;;;;7.57;2.67;;;13.50;88.40;;;;;;5010435;28;20036;-70
2022/04/29 10:30:06;;;;;;;4.63;2.20;;;13.60;87.60;;;;;;5009790;28;20099;-70
2022/04/29 10:33:08;;;;;;;9.45;3.17;;;13.70;85.40;;;;;;5028460;28;20480;-70
2022/04/29 10:35:39;;;;;;;6.00;2.10;;;13.80;86.00;;;;;;4993448;28;20017;-70
2022/04/29 10:38:32;;;;;;;7.68;2.47;;;13.70;83.20;;;;;;5014347;28;20036;-74
2022/04/29 10:41:06;;;;;;;6.70;2.42;;;13.90;84.20;;;;;;5031369;28;20590;-70
2022/04/29 10:43:39;;;;;;;7.15;2.42;;;13.90;84.20;;;;;;5009464;28;20641;-74
2022/04/29 10:46:05;;;;;;;7.90;2.60;;;13.90;83.50;;;;;;5029182;28;20038;-76
2022/04/29 10:48:38;;;;;;;6.90;2.70;;;14.00;82.10;;;;;;5010164;28;20055;-70
2022/04/29 10:51:11;;;;;;;3.40;1.95;;;14.00;81.80;;;;;;5019820;28;20510;-73
2022/04/29 10:53:42;;;;;;;5.05;2.13;;;14.10;83.30;;;;;;4993283;28;20025;-75
2022/04/29 10:56:31;;;;;;;4.57;2.40;;;14.30;82.00;;;;;;5028731;28;20029;-73
2022/04/29 10:59:15;;;;;;;4.38;2.10;;;14.30;81.10;;;;;;5012961;28;20032;-70
2022/04/29 11:01:47;;;;;;;6.65;2.30;;;14.40;80.60;;;;;;5026544;28;20040;-74
2022/04/29 11:04:16;;;;;;;6.05;2.22;;;14.60;80.20;;;;;;5023182;28;20063;-70
2022/04/29 11:06:45;;;;;;;4.60;2.50;;;14.80;78.00;;;;;;5008210;28;20048;-71
2022/04/29 11:09:30;;;;;;;3.67;2.00;;;15.20;76.40;;;;;;5015049;28;20080;-70
2022/04/29 11:11:58;;;;;;;4.97;2.30;;;16.00;75.40;;;;;;5011729;28;20053;-75
2022/04/29 11:14:24;;;;;;;5.80;2.38;;;17.10;74.00;;;;;;4993530;28;20033;-73
2022/04/29 11:17:14;;;;;;;4.90;2.25;;;18.10;70.80;;;;;;4985370;28;20064;-72
2022/04/29 11:19:45;;;;;;;5.97;2.00;;;19.50;65.80;;;;;;5005316;28;20044;-72
2022/04/29 11:25:01;;;;;;;5.50;2.40;;;22.00;58.80;;;;;;5025604;28;20000;-73
2022/04/29 11:27:37;;;;;;;7.15;2.25;;;22.90;55.40;;;;;;4992760;28;20022;-80
2022/04/29 11:30:04;;;;;;;2.72;1.33;;;23.60;50.30;;;;;;4998429;28;20033;-74
2022/04/29 11:32:31;;;;;;;5.10;2.15;;;24.70;48.40;;;;;;5032728;28;20033;-74
2022/04/29 11:35:03;;;;;;;5.07;1.60;;;25.20;43.90;;;;;;5030383;28;20029;-74
2022/04/29 11:37:33;;;;;;;2.95;1.92;;;25.60;45.30;;;;;;5011658;28;20381;-73
2022/04/29 11:40:10;;;;;;;6.65;2.35;;;25.40;44.20;;;;;;5033886;28;20064;-75
2022/04/29 11:42:36;;;;;;;2.38;1.35;;;25.30;41.60;;;;;;5031978;28;20026;-75
2022/04/29 11:45:10;;;;;;;4.95;1.88;;;24.30;44.30;;;;;;5010812;28;20119;-73
2022/04/29 11:47:36;;;;;;;5.22;2.53;;;23.70;44.50;;;;;;4998162;28;20436;-74
2022/04/29 11:50:03;;;;;;;3.85;1.73;;;23.20;43.80;;;;;;5010135;28;20060;-75
2022/04/29 11:52:34;;;;;;;6.63;1.95;;;22.50;46.70;;;;;;5013545;28;20040;-74
2022/04/29 11:55:21;;;;;;;4.80;1.75;;;22.00;45.20;;;;;;5026185;28;20021;-74
2022/04/29 11:57:49;;;;;;;3.97;1.88;;;21.60;47.20;;;;;;5014228;28;20026;-74
2022/04/29 12:00:30;;;;;;;5.72;2.45;;;21.20;50.30;;;;;;5011303;28;20025;-73
2022/04/29 12:02:57;;;;;;;8.93;4.22;;;21.00;47.40;;;;;;5034288;28;20033;-73
2022/04/29 12:05:29;;;;;;;3.50;1.85;;;20.40;49.20;;;;;;5013446;28;20030;-73
2022/04/29 12:08:01;;;;;;;5.38;2.08;;;20.00;49.60;;;;;;5029458;28;20040;-73
2022/04/29 12:10:29;;;;;;;4.13;1.90;;;19.60;51.30;;;;;;5031152;28;20497;-78
2022/04/29 12:13:05;;;;;;;4.13;2.28;;;19.10;49.00;;;;;;4995266;28;20122;-75
2022/04/29 12:15:35;;;;;;;5.82;2.92;;;18.80;50.60;;;;;;5017397;28;20076;-70
2022/04/29 12:18:03;;;;;;;8.45;3.58;;;18.70;51.60;;;;;;5037098;28;20109;-70
2022/04/29 12:20:30;;;;;;;11.38;2.72;;;18.80;51.60;;;;;;5014641;28;20061;-70
2022/04/29 12:23:16;;;;;;;4.45;2.83;;;19.20;52.60;;;;;;5034267;28;20036;-71
2022/04/29 12:25:44;;;;;;;5.40;2.88;;;19.40;52.10;;;;;;5011498;28;20037;-74
2022/04/29 12:28:11;;;;;;;3.00;2.20;;;19.20;51.80;;;;;;5017296;28;20068;-70
2022/04/29 12:36:22;;;;;;;4.82;2.33;;;19.20;50.60;;;;;;4997954;28;20507;-74
2022/04/29 12:38:47;;;;;;;6.40;2.60;;;19.50;51.10;;;;;;5017575;28;20033;-71
2022/04/29 12:41:25;;;;;;;4.30;2.90;;;19.60;50.10;;;;;;5031038;28;20081;-70
2022/04/29 12:43:52;;;;;;;9.48;3.13;;;20.00;49.80;;;;;;5036167;28;20036;-72
2022/04/29 12:46:19;;;;;;;4.65;2.88;;;20.20;48.20;;;;;;5013074;28;20113;-73
2022/04/29 12:48:47;;;;;;;5.88;2.63;;;20.20;48.70;;;;;;5014367;28;20577;-70
2022/04/29 12:51:23;;;;;;;5.00;2.65;;;19.90;49.30;;;;;;5032461;28;20061;-70
2022/04/29 12:53:50;;;;;;;4.57;2.90;;;19.60;49.50;;;;;;5033940;28;20025;-74
2022/04/29 12:56:33;;;;;;;5.10;3.42;;;19.60;50.10;;;;;;5015132;28;21792;-71
2022/04/29 12:59:00;;;;;;;6.20;3.28;;;19.80;50.80;;;;;;5000433;28;20025;-76
2022/04/29 13:01:38;;;;;;;10.25;6.00;;;20.10;50.60;;;;;;5015176;28;20057;-70
2022/04/29 13:04:06;;;;;;;17.00;11.90;;;20.70;48.10;;;;;;5015911;28;20187;-75
2022/04/29 13:06:34;;;;;;;12.32;7.60;;;21.00;48.40;;;;;;5032527;28;20029;-71
2022/04/29 13:09:02;;;;;;;5.22;3.13;;;21.40;47.30;;;;;;5033098;28;20142;-75
2022/04/29 13:11:29;;;;;;;6.70;3.75;;;21.50;47.20;;;;;;5030285;28;20255;-75
2022/04/29 13:13:55;;;;;;;5.28;3.33;;;21.80;47.10;;;;;;5031289;28;20100;-71
2022/04/29 13:16:22;;;;;;;5.15;3.40;;;22.10;46.60;;;;;;5029129;28;20029;-72
2022/04/29 13:18:48;;;;;;;5.57;2.70;;;22.00;46.30;;;;;;5015866;28;20040;-72
2022/04/29 13:21:15;;;;;;;5.97;3.25;;;22.00;46.40;;;;;;5019664;28;20048;-72
2022/04/29 13:23:42;;;;;;;8.23;3.38;;;21.60;46.30;;;;;;5039279;28;20040;-73
2022/04/29 13:26:10;;;;;;;5.07;2.90;;;21.10;46.50;;;;;;5011419;28;20404;-76
2022/04/29 13:28:37;;;;;;;4.55;2.88;;;20.90;47.10;;;;;;5014193;28;20176;-76
2022/04/29 13:31:05;;;;;;;7.47;3.05;;;20.50;47.60;;;;;;5018513;28;20026;-77